createdAt,value
2018-10-18T00:00:02.852Z,0.00
2018-10-18T00:01:02.805Z,0.00
2018-10-18T00:02:02.858Z,0.00
2018-10-18T00:03:02.840Z,0.00
2018-10-18T00:04:02.861Z,0.00
2018-10-18T00:05:02.871Z,0.00
2018-10-18T00:06:02.980Z,0.00
2018-10-18T00:07:02.914Z,0.00
2018-10-18T00:08:02.946Z,0.00
2018-10-18T00:09:02.948Z,0.00
2018-10-18T00:10:02.960Z,0.00
2018-10-18T00:11:02.976Z,0.00
2018-10-18T00:12:03.043Z,0.00
2018-10-18T00:13:03.012Z,0.00
2018-10-18T00:14:03.085Z,0.00
2018-10-18T00:15:03.045Z,0.00
2018-10-18T00:16:03.063Z,0.00
2018-10-18T00:17:03.081Z,0.00
2018-10-18T00:18:03.155Z,0.00
2018-10-18T00:19:03.116Z,0.00
2018-10-18T00:20:03.139Z,0.00
2018-10-18T00:21:03.148Z,0.00
2018-10-18T00:22:03.165Z,0.00
2018-10-18T00:23:03.188Z,0.00
2018-10-18T00:24:03.261Z,0.00
2018-10-18T00:25:03.218Z,0.00
2018-10-18T00:26:03.249Z,0.00
2018-10-18T00:27:03.252Z,0.00
2018-10-18T00:28:03.272Z,0.00
2018-10-18T00:29:03.286Z,0.00
2018-10-18T00:30:03.386Z,0.00
2018-10-18T00:31:03.323Z,0.00
2018-10-18T00:32:03.402Z,0.00
2018-10-18T00:33:03.357Z,0.00
2018-10-18T00:34:03.379Z,0.00
2018-10-18T00:35:03.386Z,0.00
2018-10-18T00:36:03.518Z,0.00
2018-10-18T00:37:03.420Z,0.00
2018-10-18T00:38:03.486Z,0.00
2018-10-18T00:39:03.460Z,0.00
2018-10-18T00:40:03.475Z,0.00
2018-10-18T00:41:03.490Z,0.00
2018-10-18T00:42:03.561Z,0.00
2018-10-18T00:43:03.523Z,0.00
2018-10-18T00:44:03.559Z,0.00
2018-10-18T00:45:03.567Z,0.00
2018-10-18T00:46:03.579Z,0.00
2018-10-18T00:47:03.596Z,0.00
2018-10-18T00:48:03.648Z,0.00
2018-10-18T00:49:03.634Z,0.00
2018-10-18T00:50:03.686Z,0.00
2018-10-18T00:51:03.664Z,0.00
2018-10-18T00:52:03.687Z,0.00
2018-10-18T00:53:03.704Z,0.00
2018-10-18T00:54:03.746Z,0.00
2018-10-18T00:55:03.734Z,0.00
2018-10-18T00:56:03.760Z,0.00
2018-10-18T00:57:03.771Z,0.00
2018-10-18T00:58:03.787Z,0.00
2018-10-18T00:59:03.816Z,0.00
2018-10-18T01:00:03.844Z,0.00
2018-10-18T01:01:03.836Z,0.00
2018-10-18T01:02:03.911Z,0.00
2018-10-18T01:03:03.874Z,0.00
2018-10-18T01:04:03.887Z,0.00
2018-10-18T01:05:03.912Z,0.00
2018-10-18T01:06:03.992Z,0.00
2018-10-18T01:07:03.939Z,0.00
2018-10-18T01:08:04.011Z,0.00
2018-10-18T01:09:03.978Z,0.00
2018-10-18T01:10:04.030Z,0.00
2018-10-18T01:11:04.013Z,0.00
2018-10-18T01:12:04.105Z,0.00
2018-10-18T01:13:04.046Z,0.00
2018-10-18T01:14:04.119Z,0.00
2018-10-18T01:15:04.075Z,0.00
2018-10-18T01:16:04.095Z,0.00
2018-10-18T01:17:04.111Z,0.00
2018-10-18T01:18:04.194Z,0.00
2018-10-18T01:19:04.149Z,0.00
2018-10-18T01:20:04.214Z,0.00
2018-10-18T01:21:04.187Z,0.00
2018-10-18T01:22:04.197Z,0.00
2018-10-18T01:23:04.222Z,0.00
2018-10-18T01:24:04.248Z,0.00
2018-10-18T01:25:04.254Z,0.00
2018-10-18T01:26:04.277Z,0.00
2018-10-18T01:27:04.293Z,0.00
2018-10-18T01:28:04.304Z,0.00
2018-10-18T01:29:04.329Z,0.00
2018-10-18T01:30:04.388Z,0.00
2018-10-18T01:31:04.363Z,0.00
2018-10-18T01:32:04.478Z,0.00
2018-10-18T01:33:04.394Z,0.00
2018-10-18T01:34:04.414Z,0.00
2018-10-18T01:35:04.430Z,0.00
2018-10-18T01:36:04.487Z,0.00
2018-10-18T01:37:04.467Z,0.00
2018-10-18T01:38:04.520Z,0.00
2018-10-18T01:39:04.501Z,0.00
2018-10-18T01:40:04.516Z,0.00
2018-10-18T01:41:04.564Z,0.00
2018-10-18T01:42:04.601Z,0.00
2018-10-18T01:43:04.569Z,0.00
2018-10-18T01:44:04.666Z,0.00
2018-10-18T01:45:04.605Z,0.00
2018-10-18T01:46:04.620Z,0.00
2018-10-18T01:47:04.643Z,0.00
2018-10-18T01:48:11.361Z,0.00
2018-10-18T01:49:04.691Z,0.00
2018-10-18T01:50:04.787Z,0.00
2018-10-18T01:51:04.711Z,0.00
2018-10-18T01:52:04.732Z,0.00
2018-10-18T01:53:04.744Z,0.00
2018-10-18T01:54:04.824Z,0.00
2018-10-18T01:55:04.781Z,0.00
2018-10-18T01:56:04.841Z,0.00
2018-10-18T01:57:04.816Z,0.00
2018-10-18T01:58:04.831Z,0.00
2018-10-18T01:59:04.854Z,0.00
2018-10-18T02:00:04.935Z,0.00
2018-10-18T02:01:04.892Z,0.00
2018-10-18T02:02:04.940Z,0.00
2018-10-18T02:03:04.924Z,0.00
2018-10-18T02:04:04.937Z,0.00
2018-10-18T02:05:04.957Z,0.00
2018-10-18T02:06:05.002Z,0.00
2018-10-18T02:07:04.992Z,0.00
2018-10-18T02:08:05.063Z,0.00
2018-10-18T02:09:05.044Z,0.00
2018-10-18T02:10:05.042Z,0.00
2018-10-18T02:11:05.068Z,0.00
2018-10-18T02:12:05.171Z,0.00
2018-10-18T02:13:05.096Z,0.00
2018-10-18T02:14:05.118Z,0.00
2018-10-18T02:15:05.132Z,0.00
2018-10-18T02:16:05.150Z,0.00
2018-10-18T02:17:05.168Z,0.00
2018-10-18T02:18:05.233Z,0.00
2018-10-18T02:19:05.315Z,0.00
2018-10-18T02:20:05.219Z,0.00
2018-10-18T02:21:05.237Z,0.00
2018-10-18T02:22:05.255Z,0.00
2018-10-18T02:23:05.270Z,0.00
2018-10-18T02:24:05.409Z,0.00
2018-10-18T02:25:05.353Z,0.00
2018-10-18T02:26:05.324Z,0.00
2018-10-18T02:27:05.341Z,0.00
2018-10-18T02:28:05.357Z,0.00
2018-10-18T02:29:05.380Z,0.00
2018-10-18T02:30:05.462Z,0.00
2018-10-18T02:31:05.413Z,0.00
2018-10-18T02:32:05.434Z,0.00
2018-10-18T02:33:05.455Z,0.00
2018-10-18T02:34:05.467Z,0.00
2018-10-18T02:35:05.487Z,0.00
2018-10-18T02:36:05.530Z,0.00
2018-10-18T02:37:05.517Z,0.00
2018-10-18T02:38:05.534Z,0.00
2018-10-18T02:39:05.558Z,0.00
2018-10-18T02:40:05.573Z,0.00
2018-10-18T02:41:05.590Z,0.00
2018-10-18T02:42:05.684Z,0.00
2018-10-18T02:43:05.624Z,0.00
2018-10-18T02:44:05.640Z,0.00
2018-10-18T02:45:05.662Z,0.00
2018-10-18T02:46:05.678Z,0.00
2018-10-18T02:47:05.691Z,0.00
2018-10-18T02:48:05.816Z,0.00
2018-10-18T02:49:05.732Z,0.00
2018-10-18T02:50:05.745Z,0.00
2018-10-18T02:51:05.763Z,0.00
2018-10-18T02:52:05.780Z,0.00
2018-10-18T02:53:05.801Z,0.00
2018-10-18T02:54:05.872Z,0.00
2018-10-18T02:55:05.838Z,0.00
2018-10-18T02:56:05.855Z,0.00
2018-10-18T02:57:05.868Z,0.00
2018-10-18T02:58:05.887Z,0.00
2018-10-18T02:59:05.905Z,0.00
2018-10-18T03:00:05.988Z,0.00
2018-10-18T03:01:05.944Z,0.00
2018-10-18T03:02:05.959Z,0.00
2018-10-18T03:03:05.972Z,0.00
2018-10-18T03:04:05.993Z,0.00
2018-10-18T03:05:06.012Z,0.00
2018-10-18T03:06:06.094Z,0.00
2018-10-18T03:07:06.045Z,0.00
2018-10-18T03:08:06.064Z,0.00
2018-10-18T03:38:07.649Z,0.00
2018-10-18T03:39:07.651Z,0.00
2018-10-18T03:40:59.579Z,0.00
2018-10-18T03:41:59.606Z,0.00
2018-10-18T03:43:51.476Z,0.00
2018-10-18T03:44:51.492Z,0.00
2018-10-18T03:46:43.411Z,0.00
2018-10-18T03:47:43.397Z,0.00
2018-10-18T03:49:35.330Z,0.00
2018-10-18T03:50:35.316Z,0.00
2018-10-18T03:52:27.229Z,0.00
2018-10-18T03:53:27.242Z,0.00
2018-10-18T03:55:19.178Z,0.00
2018-10-18T03:56:19.172Z,0.00
2018-10-18T03:58:11.091Z,0.00
2018-10-18T03:59:11.092Z,0.00
2018-10-18T04:01:03.040Z,0.00
2018-10-18T04:02:03.035Z,0.00
2018-10-18T04:03:54.950Z,0.00
2018-10-18T04:04:54.958Z,0.00
2018-10-18T04:06:46.905Z,0.00
2018-10-18T04:07:46.889Z,0.00
2018-10-18T04:09:38.886Z,0.00
2018-10-18T04:10:38.820Z,0.00
2018-10-18T04:12:30.784Z,0.00
2018-10-18T04:13:30.773Z,0.00
2018-10-18T04:15:22.700Z,0.00
2018-10-18T04:16:22.702Z,0.00
2018-10-18T04:18:14.681Z,0.00
2018-10-18T04:19:14.629Z,0.00
2018-10-18T04:21:06.558Z,0.00
2018-10-18T04:22:06.545Z,0.00
2018-10-18T04:23:58.496Z,0.00
2018-10-18T04:24:58.499Z,0.00
2018-10-18T04:26:50.442Z,0.00
2018-10-18T04:27:50.434Z,0.00
2018-10-18T04:29:42.401Z,0.00
2018-10-18T04:30:42.364Z,0.00
2018-10-18T04:32:34.284Z,0.00
2018-10-18T04:33:34.298Z,0.00
2018-10-18T04:35:26.253Z,0.00
2018-10-18T04:36:26.236Z,0.00
2018-10-18T04:38:18.159Z,0.00
2018-10-18T04:39:18.176Z,0.00
2018-10-18T04:41:10.118Z,0.00
2018-10-18T04:42:10.198Z,0.00
2018-10-18T04:44:02.035Z,0.00
2018-10-18T04:45:02.050Z,0.00
2018-10-18T04:46:53.995Z,0.00
2018-10-18T04:47:54.127Z,0.00
2018-10-18T04:49:45.897Z,0.00
2018-10-18T04:50:45.906Z,0.00
2018-10-18T04:52:37.842Z,0.00
2018-10-18T04:53:37.837Z,0.00
2018-10-18T04:55:29.775Z,0.00
2018-10-18T04:56:29.770Z,0.00
2018-10-18T04:58:21.683Z,0.00
2018-10-18T04:59:21.696Z,0.00
2018-10-18T05:01:13.726Z,0.00
2018-10-18T05:02:13.622Z,0.00
2018-10-18T05:04:05.547Z,0.00
2018-10-18T05:05:05.557Z,0.00
2018-10-18T05:06:57.548Z,0.00
2018-10-18T05:07:57.486Z,0.00
2018-10-18T05:09:49.408Z,0.00
2018-10-18T05:10:49.419Z,0.00
2018-10-18T05:12:41.463Z,0.00
2018-10-18T05:13:41.355Z,0.00
2018-10-18T05:15:33.300Z,0.00
2018-10-18T05:16:33.281Z,0.00
2018-10-18T05:18:25.201Z,0.00
2018-10-18T05:19:25.212Z,0.00
2018-10-18T05:21:17.150Z,0.00
2018-10-18T05:22:17.141Z,0.00
2018-10-18T05:24:09.060Z,0.00
2018-10-18T05:25:09.346Z,0.00
2018-10-18T05:27:01.011Z,0.00
2018-10-18T05:28:01.008Z,0.00
2018-10-18T05:29:52.921Z,0.00
2018-10-18T05:30:52.983Z,0.00
2018-10-18T05:32:44.874Z,0.00
2018-10-18T05:33:44.868Z,0.00
2018-10-18T05:35:36.813Z,0.00
2018-10-18T05:36:36.796Z,0.00
2018-10-18T05:38:28.720Z,4.00
2018-10-18T05:39:28.732Z,0.00
2018-10-18T05:41:20.667Z,0.00
2018-10-18T05:42:20.664Z,4.00
2018-10-18T05:44:12.581Z,8.00
2018-10-18T05:45:12.596Z,8.00
2018-10-18T05:47:04.576Z,8.00
2018-10-18T05:48:04.556Z,12.00
2018-10-18T05:49:56.468Z,20.00
2018-10-18T05:50:56.486Z,20.00
2018-10-18T05:52:48.465Z,24.00
2018-10-18T05:53:48.514Z,32.00
2018-10-18T05:55:40.843Z,36.00
2018-10-18T05:56:40.837Z,40.00
2018-10-18T05:58:32.760Z,52.00
2018-10-18T05:59:32.765Z,64.00
2018-10-18T06:01:24.703Z,72.00
2018-10-18T06:02:24.693Z,80.00
2018-10-18T06:04:16.663Z,88.00
2018-10-18T06:05:16.653Z,96.00
2018-10-18T06:07:08.679Z,100.00
2018-10-18T06:08:08.581Z,104.00
2018-10-18T06:10:00.577Z,100.00
2018-10-18T06:11:00.513Z,104.00
2018-10-18T06:12:52.498Z,104.00
2018-10-18T06:13:52.445Z,112.00
2018-10-18T06:15:44.383Z,128.00
2018-10-18T06:16:44.388Z,140.00
2018-10-18T06:18:36.318Z,172.00
2018-10-18T06:19:36.328Z,192.00
2018-10-18T06:21:28.271Z,220.00
2018-10-18T06:22:28.262Z,236.00
2018-10-18T06:24:20.195Z,256.00
2018-10-18T06:25:20.201Z,256.00
2018-10-18T06:27:12.155Z,268.00
2018-10-18T06:28:12.130Z,268.00
2018-10-18T06:30:04.056Z,272.00
2018-10-18T06:31:04.082Z,280.00
2018-10-18T06:32:56.082Z,276.00
2018-10-18T06:33:55.993Z,272.00
2018-10-18T06:35:47.947Z,276.00
2018-10-18T06:36:47.968Z,284.00
2018-10-18T06:38:39.846Z,308.00
2018-10-18T06:39:39.857Z,316.00
2018-10-18T06:41:31.792Z,332.00
2018-10-18T06:42:31.784Z,336.00
2018-10-18T06:44:23.709Z,360.00
2018-10-18T06:45:23.712Z,384.00
2018-10-18T06:47:15.732Z,460.00
2018-10-18T06:48:15.641Z,508.00
2018-10-18T06:50:07.559Z,528.00
2018-10-18T06:51:07.577Z,496.00
2018-10-18T06:52:59.511Z,432.00
2018-10-18T06:53:59.509Z,420.00
2018-10-18T06:55:51.416Z,436.00
2018-10-18T06:56:51.429Z,464.00
2018-10-18T06:58:43.371Z,544.00
2018-10-18T06:59:43.379Z,624.00
2018-10-18T07:01:35.298Z,804.00
2018-10-18T07:02:35.292Z,848.00
2018-10-18T07:04:27.205Z,792.00
2018-10-18T07:05:27.214Z,744.00
2018-10-18T07:07:19.155Z,640.00
2018-10-18T07:08:19.145Z,592.00
2018-10-18T07:10:12.569Z,560.00
2018-10-18T07:11:12.588Z,548.00
2018-10-18T07:13:04.525Z,524.00
2018-10-18T07:14:04.529Z,504.00
2018-10-18T07:15:56.437Z,488.00
2018-10-18T07:16:56.446Z,516.00
2018-10-18T07:18:48.426Z,604.00
2018-10-18T07:19:48.387Z,656.00
2018-10-18T07:21:40.329Z,720.00
2018-10-18T07:22:40.325Z,724.00
2018-10-18T07:24:32.248Z,772.00
2018-10-18T07:25:32.254Z,804.00
2018-10-18T07:27:24.205Z,800.00
2018-10-18T07:28:24.184Z,792.00
2018-10-18T07:30:16.179Z,780.00
2018-10-18T07:31:16.116Z,804.00
2018-10-18T07:33:08.058Z,836.00
2018-10-18T07:34:08.048Z,836.00
2018-10-18T07:36:00.009Z,844.00
2018-10-18T07:36:59.977Z,856.00
2018-10-18T07:38:51.916Z,924.00
2018-10-18T07:39:51.907Z,980.00
2018-10-18T07:41:43.849Z,1096.00
2018-10-18T07:42:43.833Z,1136.00
2018-10-18T07:44:35.758Z,1052.00
2018-10-18T07:45:35.760Z,1000.00
2018-10-18T07:47:27.696Z,1008.00
2018-10-18T07:48:27.691Z,1060.00
2018-10-18T07:50:19.612Z,1152.00
2018-10-18T07:51:19.631Z,1168.00
2018-10-18T07:53:11.625Z,1172.00
2018-10-18T07:54:11.576Z,1188.00
2018-10-18T07:56:03.496Z,1224.00
2018-10-18T07:57:03.528Z,1244.00
2018-10-18T07:58:55.444Z,1304.00
2018-10-18T07:59:55.498Z,1360.00
2018-10-18T08:01:47.571Z,1492.00
2018-10-18T08:02:47.565Z,1592.00
2018-10-18T08:04:39.490Z,1788.00
2018-10-18T08:05:39.501Z,1848.00
2018-10-18T08:07:31.674Z,1920.00
2018-10-18T08:08:31.432Z,1988.00
2018-10-18T08:10:23.352Z,1996.00
2018-10-18T08:11:23.364Z,1908.00
2018-10-18T08:13:15.335Z,1748.00
2018-10-18T08:14:15.293Z,1712.00
2018-10-18T08:16:07.218Z,1636.00
2018-10-18T08:17:07.267Z,1576.00
2018-10-18T08:18:59.173Z,1552.00
2018-10-18T08:19:59.160Z,1536.00
2018-10-18T08:21:51.108Z,1476.00
2018-10-18T08:22:51.101Z,1432.00
2018-10-18T08:24:43.012Z,1396.00
2018-10-18T08:25:43.033Z,1408.00
2018-10-18T08:27:34.997Z,1460.00
2018-10-18T08:28:34.961Z,1476.00
2018-10-18T08:30:26.885Z,1512.00
2018-10-18T08:31:27.020Z,1532.00
2018-10-18T08:33:18.826Z,1496.00
2018-10-18T08:34:18.830Z,1468.00
2018-10-18T08:36:10.742Z,1496.00
2018-10-18T08:37:10.800Z,1532.00
2018-10-18T08:39:02.687Z,1620.00
2018-10-18T08:40:02.682Z,1660.00
2018-10-18T08:41:54.613Z,1712.00
2018-10-18T08:42:54.628Z,1768.00
2018-10-18T08:44:46.556Z,1876.00
2018-10-18T08:45:46.555Z,1916.00
2018-10-18T08:47:38.499Z,1976.00
2018-10-18T08:48:38.481Z,2016.00
2018-10-18T08:50:30.407Z,2052.00
2018-10-18T08:51:30.421Z,2076.00
2018-10-18T08:53:22.374Z,2216.00
2018-10-18T08:54:22.357Z,2340.00
2018-10-18T08:56:14.280Z,2464.00
2018-10-18T08:57:14.293Z,2524.00
2018-10-18T08:59:06.245Z,2488.00
2018-10-18T09:00:06.223Z,2448.00
2018-10-18T09:01:58.148Z,2440.00
2018-10-18T09:02:58.159Z,2472.00
2018-10-18T09:04:50.094Z,2612.00
2018-10-18T09:05:50.093Z,2724.00
2018-10-18T09:07:42.042Z,2900.00
2018-10-18T09:08:42.037Z,2912.00
2018-10-18T09:10:33.957Z,2892.00
2018-10-18T09:11:33.961Z,2896.00
2018-10-18T09:13:25.905Z,2936.00
2018-10-18T09:14:25.900Z,2944.00
2018-10-18T09:16:17.817Z,2904.00
2018-10-18T09:17:17.832Z,2912.00
2018-10-18T09:19:09.809Z,2728.00
2018-10-18T09:20:09.758Z,2540.00
2018-10-18T09:22:01.685Z,2536.00
2018-10-18T09:23:01.701Z,2724.00
2018-10-18T09:24:53.674Z,3016.00
2018-10-18T09:25:53.632Z,3136.00
2018-10-18T09:27:45.569Z,3104.00
2018-10-18T09:28:45.562Z,2984.00
2018-10-18T09:30:37.484Z,2992.00
2018-10-18T09:31:37.493Z,3108.00
2018-10-18T09:32:37.513Z,3180.00
2018-10-18T09:33:37.530Z,3428.00
2018-10-18T09:34:37.549Z,3168.00
2018-10-18T09:35:37.570Z,3172.00
2018-10-18T09:36:37.588Z,3164.00
2018-10-18T09:37:37.607Z,3116.00
2018-10-18T09:38:37.627Z,3152.00
2018-10-18T09:39:37.648Z,3164.00
2018-10-18T09:40:37.667Z,2936.00
2018-10-18T09:41:37.687Z,2576.00
2018-10-18T09:42:37.704Z,2344.00
2018-10-18T09:43:37.724Z,2200.00
2018-10-18T09:44:37.759Z,2080.00
2018-10-18T09:45:37.760Z,2012.00
2018-10-18T09:46:37.781Z,1784.00
2018-10-18T09:47:37.798Z,1716.00
2018-10-18T09:48:37.814Z,1820.00
2018-10-18T09:49:37.838Z,1860.00
2018-10-18T09:50:37.853Z,1600.00
2018-10-18T09:51:37.872Z,1980.00
2018-10-18T09:52:37.895Z,1660.00
2018-10-18T09:53:37.910Z,1592.00
2018-10-18T09:54:37.934Z,1464.00
2018-10-18T09:55:37.972Z,1460.00
2018-10-18T09:56:37.966Z,1956.00
2018-10-18T09:57:38.006Z,1940.00
2018-10-18T09:58:38.014Z,1936.00
2018-10-18T09:59:38.021Z,1924.00
2018-10-18T10:00:38.044Z,1912.00
2018-10-18T10:01:38.068Z,1928.00
2018-10-18T10:02:38.090Z,1912.00
2018-10-18T10:03:38.098Z,1956.00
2018-10-18T10:04:38.118Z,2004.00
2018-10-18T10:05:38.137Z,1992.00
2018-10-18T10:06:38.153Z,1992.00
2018-10-18T10:07:38.171Z,1764.00
2018-10-18T10:08:38.193Z,2048.00
2018-10-18T10:09:38.218Z,2172.00
2018-10-18T10:10:38.233Z,2436.00
2018-10-18T10:11:38.366Z,2412.00
2018-10-18T10:12:38.274Z,2620.00
2018-10-18T10:13:38.305Z,2460.00
2018-10-18T10:14:38.306Z,2828.00
2018-10-18T10:15:38.323Z,2628.00
2018-10-18T10:16:38.345Z,2900.00
2018-10-18T10:17:38.455Z,2916.00
2018-10-18T10:18:38.382Z,2420.00
2018-10-18T10:19:38.402Z,2376.00
2018-10-18T10:20:38.419Z,2560.00
2018-10-18T10:21:38.437Z,2532.00
2018-10-18T10:22:38.458Z,2476.00
2018-10-18T10:23:38.478Z,2464.00
2018-10-18T10:24:38.585Z,2440.00
2018-10-18T10:25:38.513Z,2580.00
2018-10-18T10:26:38.533Z,2920.00
2018-10-18T10:27:38.552Z,3236.00
2018-10-18T10:28:38.572Z,3668.00
2018-10-18T10:29:38.591Z,3916.00
2018-10-18T10:30:38.607Z,3616.00
2018-10-18T10:31:38.632Z,3552.00
2018-10-18T10:32:38.648Z,3024.00
2018-10-18T10:33:38.671Z,2764.00
2018-10-18T10:34:38.690Z,2748.00
2018-10-18T10:35:38.772Z,2560.00
2018-10-18T10:36:38.724Z,2360.00
2018-10-18T10:37:38.745Z,2108.00
2018-10-18T10:38:38.827Z,2172.00
2018-10-18T10:39:38.786Z,2152.00
2018-10-18T10:40:38.812Z,2036.00
2018-10-18T10:41:38.825Z,1992.00
2018-10-18T10:42:38.848Z,1908.00
2018-10-18T10:43:38.863Z,2268.00
2018-10-18T10:44:38.882Z,2172.00
2018-10-18T10:45:38.941Z,2784.00
2018-10-18T10:46:38.920Z,2888.00
2018-10-18T10:47:38.953Z,2920.00
2018-10-18T10:48:38.960Z,2924.00
2018-10-18T10:49:38.980Z,2776.00
2018-10-18T10:50:38.998Z,2176.00
2018-10-18T10:51:39.018Z,2672.00
2018-10-18T10:52:39.034Z,2704.00
2018-10-18T10:53:39.059Z,2668.00
2018-10-18T10:54:39.078Z,2760.00
2018-10-18T10:55:39.096Z,2640.00
2018-10-18T10:56:39.117Z,2680.00
2018-10-18T10:57:39.141Z,2740.00
2018-10-18T10:58:39.157Z,2908.00
2018-10-18T10:59:39.180Z,3144.00
2018-10-18T11:00:39.192Z,3340.00
2018-10-18T11:01:39.214Z,3376.00
2018-10-18T11:02:39.235Z,3512.00
2018-10-18T11:03:39.254Z,3384.00
2018-10-18T11:04:39.276Z,3228.00
2018-10-18T11:05:39.293Z,3352.00
2018-10-18T11:06:39.313Z,3712.00
2018-10-18T11:07:39.335Z,3788.00
2018-10-18T11:08:39.354Z,3356.00
2018-10-18T11:09:39.453Z,3676.00
2018-10-18T11:10:39.390Z,3188.00
2018-10-18T11:11:39.417Z,2752.00
2018-10-18T11:12:39.431Z,2136.00
2018-10-18T11:13:39.450Z,1996.00
2018-10-18T11:14:39.870Z,1868.00
2018-10-18T11:15:39.489Z,1752.00
2018-10-18T11:16:39.520Z,1728.00
2018-10-18T11:17:39.532Z,1812.00
2018-10-18T11:18:39.551Z,1888.00
2018-10-18T11:19:39.572Z,2056.00
2018-10-18T11:20:39.592Z,2144.00
2018-10-18T11:21:39.663Z,2084.00
2018-10-18T11:22:39.636Z,1976.00
2018-10-18T11:23:39.650Z,2028.00
2018-10-18T11:24:39.678Z,2100.00
2018-10-18T11:25:39.693Z,2288.00
2018-10-18T11:26:39.712Z,2548.00
2018-10-18T11:27:39.730Z,2712.00
2018-10-18T11:28:39.753Z,3420.00
2018-10-18T11:29:39.781Z,3472.00
2018-10-18T11:30:39.794Z,2944.00
2018-10-18T11:31:39.814Z,3772.00
2018-10-18T11:32:39.830Z,3372.00
2018-10-18T11:33:39.850Z,3536.00
2018-10-18T11:34:39.869Z,2936.00
2018-10-18T11:35:39.902Z,3228.00
2018-10-18T11:36:39.908Z,3212.00
2018-10-18T11:37:39.928Z,2428.00
2018-10-18T11:38:39.953Z,2824.00
2018-10-18T11:39:39.966Z,2736.00
2018-10-18T11:40:39.990Z,2040.00
2018-10-18T11:41:40.004Z,2764.00
2018-10-18T11:42:40.080Z,2164.00
2018-10-18T11:43:40.045Z,2804.00
2018-10-18T11:44:40.066Z,2288.00
2018-10-18T11:45:40.086Z,2400.00
2018-10-18T11:46:40.122Z,2052.00
2018-10-18T11:47:40.160Z,2224.00
2018-10-18T11:48:40.146Z,2420.00
2018-10-18T11:49:40.166Z,2832.00
2018-10-18T11:50:40.185Z,2824.00
2018-10-18T11:51:40.319Z,2872.00
2018-10-18T11:52:40.225Z,2972.00
2018-10-18T11:53:40.246Z,2948.00
2018-10-18T11:54:40.269Z,2932.00
2018-10-18T11:55:40.283Z,2412.00
2018-10-18T11:56:40.309Z,2560.00
2018-10-18T11:57:40.325Z,2140.00
2018-10-18T11:58:40.343Z,2148.00
2018-10-18T11:59:40.362Z,2192.00
2018-10-18T12:00:40.382Z,1988.00
2018-10-18T12:01:40.407Z,2040.00
2018-10-18T12:02:40.515Z,2100.00
2018-10-18T12:03:40.449Z,2832.00
2018-10-18T12:04:40.464Z,3076.00
2018-10-18T12:05:40.488Z,3404.00
2018-10-18T12:06:40.502Z,3936.00
2018-10-18T12:07:40.520Z,4332.00
2018-10-18T12:08:40.541Z,4276.00
2018-10-18T12:09:40.563Z,4048.00
2018-10-18T12:10:40.586Z,3776.00
2018-10-18T12:11:40.603Z,3460.00
2018-10-18T12:12:40.623Z,3416.00
2018-10-18T12:13:40.643Z,2316.00
2018-10-18T12:14:40.659Z,2196.00
2018-10-18T12:15:40.679Z,2052.00
2018-10-18T12:16:40.702Z,1996.00
2018-10-18T12:17:40.721Z,2044.00
2018-10-18T12:18:40.743Z,2212.00
2018-10-18T12:19:40.760Z,2412.00
2018-10-18T12:20:40.782Z,2588.00
2018-10-18T12:21:40.800Z,2704.00
2018-10-18T12:22:40.823Z,2752.00
2018-10-18T12:23:40.844Z,2808.00
2018-10-18T12:24:40.864Z,2828.00
2018-10-18T12:25:40.880Z,2788.00
2018-10-18T12:26:40.957Z,3704.00
2018-10-18T12:27:40.933Z,3244.00
2018-10-18T12:28:40.942Z,2800.00
2018-10-18T12:29:40.963Z,2700.00
2018-10-18T12:30:40.981Z,2684.00
2018-10-18T12:31:41.005Z,2740.00
2018-10-18T12:32:41.022Z,2764.00
2018-10-18T12:33:41.041Z,2776.00
2018-10-18T12:34:41.067Z,2792.00
2018-10-18T12:35:41.082Z,2836.00
2018-10-18T12:36:41.099Z,2924.00
2018-10-18T12:37:41.126Z,3912.00
2018-10-18T12:38:41.143Z,3540.00
2018-10-18T12:39:41.272Z,3196.00
2018-10-18T12:40:41.198Z,3584.00
2018-10-18T12:41:41.300Z,3616.00
2018-10-18T12:42:41.229Z,3428.00
2018-10-18T12:43:41.242Z,2888.00
2018-10-18T12:44:41.262Z,2360.00
2018-10-18T12:45:41.284Z,2312.00
2018-10-18T12:46:41.301Z,2296.00
2018-10-18T12:47:41.331Z,2684.00
2018-10-18T12:48:41.560Z,2368.00
2018-10-18T12:49:41.367Z,2300.00
2018-10-18T12:50:41.390Z,2240.00
2018-10-18T12:51:41.407Z,2224.00
2018-10-18T12:52:41.420Z,2168.00
2018-10-18T12:53:41.441Z,2180.00
2018-10-18T12:54:41.601Z,2248.00
2018-10-18T12:55:41.485Z,2516.00
2018-10-18T12:56:41.503Z,2672.00
2018-10-18T12:57:41.525Z,2800.00
2018-10-18T12:58:41.590Z,2920.00
2018-10-18T12:59:41.562Z,3344.00
2018-10-18T13:00:41.585Z,3072.00
2018-10-18T13:01:41.605Z,2836.00
2018-10-18T13:02:41.630Z,2872.00
2018-10-18T13:03:41.640Z,2840.00
2018-10-18T13:04:41.661Z,2776.00
2018-10-18T13:05:41.682Z,2668.00
2018-10-18T13:06:41.704Z,2492.00
2018-10-18T13:07:41.722Z,2380.00
2018-10-18T13:08:41.741Z,2352.00
2018-10-18T13:09:41.761Z,2356.00
2018-10-18T13:10:41.782Z,2372.00
2018-10-18T13:11:41.820Z,2356.00
2018-10-18T13:12:41.941Z,2360.00
2018-10-18T13:13:41.847Z,2340.00
2018-10-18T13:14:41.862Z,2308.00
2018-10-18T13:15:41.888Z,2256.00
2018-10-18T13:16:41.901Z,2196.00
2018-10-18T13:17:41.925Z,2104.00
2018-10-18T13:18:41.942Z,2036.00
2018-10-18T13:19:41.963Z,1964.00
2018-10-18T13:20:41.983Z,1928.00
2018-10-18T13:21:42.011Z,1920.00
2018-10-18T13:22:42.026Z,1916.00
2018-10-18T13:23:42.043Z,1916.00
2018-10-18T13:24:42.062Z,1892.00
2018-10-18T13:25:42.086Z,1884.00
2018-10-18T13:26:42.104Z,1868.00
2018-10-18T13:27:42.123Z,1908.00
2018-10-18T13:28:42.142Z,1928.00
2018-10-18T13:29:42.161Z,1924.00
2018-10-18T13:30:42.181Z,1900.00
2018-10-18T13:31:42.204Z,1880.00
2018-10-18T13:32:42.223Z,1844.00
2018-10-18T13:33:42.240Z,1840.00
2018-10-18T13:34:42.264Z,1856.00
2018-10-18T13:35:42.281Z,1868.00
2018-10-18T13:36:42.301Z,1852.00
2018-10-18T13:37:42.322Z,1848.00
2018-10-18T13:38:42.343Z,1848.00
2018-10-18T13:39:42.377Z,1828.00
2018-10-18T13:40:42.472Z,1780.00
2018-10-18T13:41:42.401Z,1764.00
2018-10-18T13:42:42.422Z,1776.00
2018-10-18T13:43:42.443Z,1824.00
2018-10-18T13:44:42.458Z,1892.00
2018-10-18T13:45:42.481Z,1960.00
2018-10-18T13:46:42.498Z,1948.00
2018-10-18T13:47:42.518Z,1952.00
2018-10-18T13:48:42.542Z,1948.00
2018-10-18T13:49:42.558Z,1916.00
2018-10-18T13:50:42.579Z,1964.00
2018-10-18T13:51:42.599Z,1972.00
2018-10-18T13:52:42.617Z,1972.00
2018-10-18T13:53:42.641Z,1964.00
2018-10-18T13:54:42.660Z,1964.00
2018-10-18T13:55:42.678Z,1988.00
2018-10-18T13:56:42.695Z,1984.00
2018-10-18T13:57:42.719Z,1960.00
2018-10-18T13:58:42.736Z,1960.00
2018-10-18T13:59:42.880Z,1948.00
2018-10-18T14:00:42.774Z,1944.00
2018-10-18T14:01:42.796Z,1896.00
2018-10-18T14:02:42.817Z,1848.00
2018-10-18T14:03:42.848Z,1844.00
2018-10-18T14:04:42.852Z,1852.00
2018-10-18T14:05:42.932Z,1828.00
2018-10-18T14:06:42.894Z,1716.00
2018-10-18T14:07:42.937Z,1616.00
2018-10-18T14:08:43.002Z,1592.00
2018-10-18T14:09:42.955Z,1436.00
2018-10-18T14:10:42.975Z,1320.00
2018-10-18T14:11:42.993Z,1424.00
2018-10-18T14:12:43.025Z,1576.00
2018-10-18T14:13:43.041Z,1588.00
2018-10-18T14:14:43.051Z,1600.00
2018-10-18T14:15:43.069Z,1564.00
2018-10-18T14:16:43.089Z,1560.00
2018-10-18T14:17:43.171Z,1552.00
2018-10-18T14:18:43.131Z,1512.00
2018-10-18T14:19:43.146Z,1520.00
2018-10-18T14:20:43.167Z,1580.00
2018-10-18T14:21:43.188Z,1504.00
2018-10-18T14:22:43.212Z,1372.00
2018-10-18T14:23:43.228Z,1404.00
2018-10-18T14:24:43.247Z,1276.00
2018-10-18T14:25:43.264Z,1192.00
2018-10-18T14:26:43.288Z,1320.00
2018-10-18T14:27:43.304Z,1392.00
2018-10-18T14:28:43.324Z,1408.00
2018-10-18T14:29:43.343Z,1372.00
2018-10-18T14:30:43.411Z,1344.00
2018-10-18T14:31:43.390Z,1288.00
2018-10-18T14:32:43.404Z,1260.00
2018-10-18T14:33:43.432Z,1272.00
2018-10-18T14:34:43.443Z,1268.00
2018-10-18T14:35:43.464Z,1244.00
2018-10-18T14:36:43.479Z,1240.00
2018-10-18T14:37:43.506Z,1268.00
2018-10-18T14:38:43.695Z,1272.00
2018-10-18T14:39:43.536Z,1272.00
2018-10-18T14:40:43.559Z,1248.00
2018-10-18T14:41:43.584Z,1204.00
2018-10-18T14:42:43.598Z,1144.00
2018-10-18T14:43:43.663Z,1088.00
2018-10-18T14:44:43.772Z,1028.00
2018-10-18T14:45:43.659Z,976.00
2018-10-18T14:46:43.674Z,940.00
2018-10-18T14:47:43.775Z,936.00
2018-10-18T14:48:43.713Z,920.00
2018-10-18T14:49:43.745Z,908.00